Time;durP1;ratioP1;P1;durP2;ratioP2;P2;SDS_P1;SDS_P2;PMS_P1;PMS_P2;Temp;Humidity;BMP_temperature;BMP_pressure;BME280_temperature;BME280_humidity;BME280_pressure;Samples;Min_cycle;Max_cycle;Signal;HPM_P1;HPM_P2
2021/06/04 00:00:25;;;;;;;7.27;4.73;;;;;;;;;;4995550;28;20023;-57
2021/06/04 00:02:53;;;;;;;11.67;4.73;;;;;;;;;;4995369;28;20106;-58
2021/06/04 00:05:21;;;;;;;5.57;4.07;;;;;;;;;;4995177;28;20121;-58
2021/06/04 00:07:48;;;;;;;7.20;4.30;;;;;;;;;;4995097;28;20042;-58
2021/06/04 00:10:17;;;;;;;8.93;4.57;;;;;;;;;;4994506;28;20036;-57
2021/06/04 00:12:44;;;;;;;12.17;4.50;;;;;;;;;;4995098;28;20064;-57
2021/06/04 00:15:34;;;;;;;9.27;4.47;;;;;;;;;;4994972;28;20618;-58
2021/06/04 00:18:02;;;;;;;6.23;3.60;;;;;;;;;;4994855;28;20022;-59
2021/06/04 00:20:28;;;;;;;8.57;3.77;;;;;;;;;;4994939;28;20105;-57
2021/06/04 00:22:55;;;;;;;6.50;3.90;;;;;;;;;;4994806;28;20117;-59
2021/06/04 00:25:22;;;;;;;11.17;4.53;;;;;;;;;;4994794;28;20088;-58
2021/06/04 00:27:49;;;;;;;7.30;3.93;;;;;;;;;;4994725;28;20035;-57
2021/06/04 00:30:20;;;;;;;5.60;3.40;;;;;;;;;;4994557;28;20077;-58
2021/06/04 00:32:49;;;;;;;5.77;4.03;;;;;;;;;;4994664;28;20098;-58
2021/06/04 00:35:16;;;;;;;4.57;3.20;;;;;;;;;;4979140;28;20134;-58
2021/06/04 00:37:43;;;;;;;7.70;4.47;;;;;;;;;;4994677;28;20023;-58
2021/06/04 00:40:16;;;;;;;8.90;5.27;;;;;;;;;;4994543;28;20022;-58
2021/06/04 00:42:43;;;;;;;9.47;7.00;;;;;;;;;;4994418;28;20033;-59
2021/06/04 00:45:11;;;;;;;12.47;6.80;;;;;;;;;;4994411;28;20026;-58
2021/06/04 00:47:38;;;;;;;9.63;6.63;;;;;;;;;;4994317;28;20041;-58
2021/06/04 00:50:07;;;;;;;8.93;6.00;;;;;;;;;;4994199;28;20022;-58
2021/06/04 00:52:36;;;;;;;9.90;6.57;;;;;;;;;;4994186;28;20037;-58
2021/06/04 00:55:06;;;;;;;9.40;6.07;;;;;;;;;;4994237;28;20022;-58
2021/06/04 00:57:34;;;;;;;9.63;7.43;;;;;;;;;;4994389;28;20329;-58
2021/06/04 01:00:03;;;;;;;7.47;6.53;;;;;;;;;;4994081;28;20113;-58
2021/06/04 01:02:31;;;;;;;10.60;7.80;;;;;;;;;;4994127;28;20358;-58
2021/06/04 01:04:59;;;;;;;11.73;7.73;;;;;;;;;;4994314;28;20030;-58
2021/06/04 01:07:40;;;;;;;12.63;7.83;;;;;;;;;;4993817;28;20397;-58
2021/06/04 01:10:10;;;;;;;10.47;7.73;;;;;;;;;;4994084;28;20097;-58
2021/06/04 01:12:42;;;;;;;13.87;8.93;;;;;;;;;;4993929;28;20050;-57
2021/06/04 01:15:17;;;;;;;14.40;9.50;;;;;;;;;;4993966;28;20024;-57
2021/06/04 01:17:43;;;;;;;;;;;;;;;;;;4994185;28;20054;-58
2021/06/04 01:20:13;;;;;;;11.17;9.30;;;;;;;;;;4993283;28;19948;-58
2021/06/04 01:22:53;;;;;;;11.90;9.50;;;;;;;;;;4993663;28;20030;-58
2021/06/04 01:25:38;;;;;;;13.17;9.87;;;;;;;;;;4993851;28;20038;-58
2021/06/04 01:28:29;;;;;;;19.77;6.60;;;;;;;;;;4993709;28;20461;-58
2021/06/04 01:31:02;;;;;;;6.37;4.60;;;;;;;;;;4981585;28;20045;-58
2021/06/04 01:33:45;;;;;;;9.30;4.80;;;;;;;;;;4993988;28;20093;-58
2021/06/04 01:36:15;;;;;;;10.07;4.23;;;;;;;;;;4995091;28;20457;-58
2021/06/04 01:38:42;;;;;;;6.60;4.57;;;;;;;;;;4993468;28;20019;-58
2021/06/04 01:41:12;;;;;;;9.17;5.90;;;;;;;;;;4993536;28;20464;-58
2021/06/04 01:43:41;;;;;;;10.93;4.97;;;;;;;;;;4993545;28;20069;-58
2021/06/04 01:46:11;;;;;;;7.00;4.60;;;;;;;;;;4993589;28;20027;-58
2021/06/04 01:48:41;;;;;;;11.53;5.40;;;;;;;;;;4993362;28;20042;-58
2021/06/04 01:51:13;;;;;;;9.93;4.43;;;;;;;;;;4993497;28;20133;-59
2021/06/04 01:53:44;;;;;;;8.97;5.63;;;;;;;;;;4993621;28;20430;-58
2021/06/04 01:56:16;;;;;;;10.87;5.60;;;;;;;;;;4993466;28;20105;-58
2021/06/04 01:58:54;;;;;;;7.47;3.93;;;;;;;;;;4993597;28;20034;-58
2021/06/04 02:01:25;;;;;;;8.47;4.20;;;;;;;;;;4993316;28;20026;-58
2021/06/04 02:03:52;;;;;;;9.67;5.00;;;;;;;;;;4993456;28;20062;-58
2021/06/04 02:06:19;;;;;;;8.67;4.93;;;;;;;;;;4993426;28;20033;-58
2021/06/04 02:08:52;;;;;;;9.30;4.50;;;;;;;;;;4993335;28;20042;-58
2021/06/04 02:11:21;;;;;;;10.00;5.17;;;;;;;;;;4993269;28;20085;-58
2021/06/04 02:13:49;;;;;;;11.00;4.47;;;;;;;;;;4993223;28;20421;-58
2021/06/04 02:16:34;;;;;;;10.73;4.87;;;;;;;;;;4993297;28;20049;-58
2021/06/04 02:19:06;;;;;;;8.20;4.43;;;;;;;;;;4993301;28;20030;-58
2021/06/04 02:21:40;;;;;;;10.80;5.60;;;;;;;;;;4993071;28;20074;-58
2021/06/04 02:24:07;;;;;;;8.05;5.13;;;;;;;;;;4993226;28;20485;-58
2021/06/04 02:26:46;;;;;;;11.40;5.37;;;;;;;;;;4993517;28;20037;-58
2021/06/04 02:29:31;;;;;;;10.50;5.30;;;;;;;;;;4993128;28;20401;-58
2021/06/04 02:31:58;;;;;;;;;;;;;;;;;;4994222;28;20034;-58
2021/06/04 02:34:31;;;;;;;7.60;4.27;;;;;;;;;;4996884;28;19906;-58
2021/06/04 02:37:00;;;;;;;7.03;4.20;;;;;;;;;;4998213;28;20058;-58
2021/06/04 02:39:35;;;;;;;7.13;4.13;;;;;;;;;;4996711;28;20026;-58
2021/06/04 02:42:13;;;;;;;5.47;3.47;;;;;;;;;;4996871;28;20110;-58
2021/06/04 02:44:45;;;;;;;6.93;4.20;;;;;;;;;;4996776;28;20026;-58
2021/06/04 02:47:14;;;;;;;7.90;4.23;;;;;;;;;;4996209;28;20054;-58
2021/06/04 02:49:42;;;;;;;7.70;4.57;;;;;;;;;;4996521;28;20018;-58
2021/06/04 02:52:12;;;;;;;9.00;4.57;;;;;;;;;;4996692;28;20066;-58
2021/06/04 02:54:40;;;;;;;12.90;5.10;;;;;;;;;;4996565;28;20026;-58
2021/06/04 02:57:10;;;;;;;8.10;4.33;;;;;;;;;;4979430;28;20461;-58
2021/06/04 02:59:41;;;;;;;10.50;5.63;;;;;;;;;;4996300;28;20111;-58
2021/06/04 03:02:10;;;;;;;9.90;5.03;;;;;;;;;;4996665;28;20031;-58
2021/06/04 03:04:39;;;;;;;16.27;5.23;;;;;;;;;;4996300;28;20023;-58
2021/06/04 03:07:11;;;;;;;9.17;5.60;;;;;;;;;;4996184;28;20493;-58
2021/06/04 03:09:40;;;;;;;8.30;5.07;;;;;;;;;;4996093;28;20531;-58
2021/06/04 03:12:09;;;;;;;9.93;5.33;;;;;;;;;;4996238;28;20026;-58
2021/06/04 03:14:36;;;;;;;16.97;5.37;;;;;;;;;;4995887;28;20533;-58
2021/06/04 03:17:04;;;;;;;12.17;5.47;;;;;;;;;;4995955;28;20027;-58
2021/06/04 03:19:30;;;;;;;9.07;4.80;;;;;;;;;;4995916;28;20109;-58
2021/06/04 03:22:00;;;;;;;8.57;4.67;;;;;;;;;;4978397;28;20051;-58
2021/06/04 03:24:31;;;;;;;18.07;5.50;;;;;;;;;;4995825;28;20054;-58
2021/06/04 03:26:59;;;;;;;6.97;4.43;;;;;;;;;;4995602;28;20458;-58
2021/06/04 03:29:25;;;;;;;9.33;4.50;;;;;;;;;;4995637;28;20543;-58
2021/06/04 03:31:54;;;;;;;9.67;4.93;;;;;;;;;;4995832;28;20015;-58
2021/06/04 03:34:21;;;;;;;8.70;5.27;;;;;;;;;;4995859;28;20138;-58
2021/06/04 03:36:49;;;;;;;9.97;5.30;;;;;;;;;;4997450;28;20050;-58
2021/06/04 03:39:19;;;;;;;8.27;5.20;;;;;;;;;;4995761;28;20409;-58
2021/06/04 03:41:47;;;;;;;8.00;5.00;;;;;;;;;;4995697;28;20512;-58
2021/06/04 03:44:15;;;;;;;10.10;5.73;;;;;;;;;;4994580;28;20506;-58
2021/06/04 03:46:43;;;;;;;9.97;5.30;;;;;;;;;;4995542;28;20037;-58
2021/06/04 03:49:10;;;;;;;8.47;5.63;;;;;;;;;;4995518;28;20081;-58
2021/06/04 03:51:38;;;;;;;10.43;5.50;;;;;;;;;;4995377;28;20145;-58
2021/06/04 03:54:07;;;;;;;10.30;5.87;;;;;;;;;;4995500;28;20050;-58
2021/06/04 03:56:34;;;;;;;9.47;5.53;;;;;;;;;;4995333;28;20069;-58
2021/06/04 03:59:01;;;;;;;8.13;4.87;;;;;;;;;;4995376;28;20031;-58
2021/06/04 04:01:33;;;;;;;7.87;5.30;;;;;;;;;;4995342;28;20030;-58
2021/06/04 04:04:00;;;;;;;9.30;4.87;;;;;;;;;;4995363;28;20465;-58
2021/06/04 04:06:27;;;;;;;9.60;5.00;;;;;;;;;;4995255;28;20034;-58
2021/06/04 04:08:53;;;;;;;8.27;4.30;;;;;;;;;;4995076;28;20121;-58
2021/06/04 04:11:20;;;;;;;7.87;4.87;;;;;;;;;;4994994;28;20026;-58
2021/06/04 04:13:47;;;;;;;8.27;5.27;;;;;;;;;;4995060;28;20445;-58
2021/06/04 04:16:14;;;;;;;9.63;5.47;;;;;;;;;;4994985;28;20434;-58
2021/06/04 04:18:41;;;;;;;8.77;5.40;;;;;;;;;;4994959;28;20026;-58
2021/06/04 04:21:09;;;;;;;7.20;5.17;;;;;;;;;;4994879;28;20034;-58
2021/06/04 04:23:41;;;;;;;11.73;4.97;;;;;;;;;;4994692;28;20101;-58
2021/06/04 04:26:08;;;;;;;12.07;4.90;;;;;;;;;;4994810;28;20061;-58
2021/06/04 04:28:37;;;;;;;8.67;5.30;;;;;;;;;;4977520;28;20540;-58
2021/06/04 04:31:04;;;;;;;9.73;5.43;;;;;;;;;;4994748;28;20034;-58
2021/06/04 04:33:31;;;;;;;13.63;5.13;;;;;;;;;;4994754;28;20037;-58
2021/06/04 04:35:58;;;;;;;9.17;5.23;;;;;;;;;;4996266;28;20521;-58
2021/06/04 04:38:30;;;;;;;10.13;6.90;;;;;;;;;;4994602;28;20158;-58
2021/06/04 04:41:00;;;;;;;11.37;7.53;;;;;;;;;;4994575;28;20031;-58
2021/06/04 04:43:28;;;;;;;12.67;7.87;;;;;;;;;;4994542;28;20035;-58
2021/06/04 04:45:55;;;;;;;15.40;8.90;;;;;;;;;;4994423;28;20031;-58
2021/06/04 04:48:22;;;;;;;8.53;6.30;;;;;;;;;;4994205;28;20130;-58
2021/06/04 04:50:49;;;;;;;12.03;5.87;;;;;;;;;;4994367;28;20022;-58
2021/06/04 04:53:16;;;;;;;9.17;7.07;;;;;;;;;;4994628;28;20054;-58
2021/06/04 04:55:43;;;;;;;13.40;8.33;;;;;;;;;;4976643;28;20101;-58
2021/06/04 04:58:11;;;;;;;16.80;8.07;;;;;;;;;;4994150;28;20066;-58
2021/06/04 05:00:39;;;;;;;10.37;7.67;;;;;;;;;;4994193;28;20097;-58
2021/06/04 05:03:07;;;;;;;9.53;6.47;;;;;;;;;;4994282;28;20030;-57
2021/06/04 05:05:35;;;;;;;9.50;6.30;;;;;;;;;;4994113;28;20113;-58
2021/06/04 05:08:02;;;;;;;9.83;7.23;;;;;;;;;;4993948;28;20030;-58
2021/06/04 05:10:28;;;;;;;14.30;9.13;;;;;;;;;;4993925;28;20458;-60
2021/06/04 05:12:55;;;;;;;13.60;8.83;;;;;;;;;;4994028;28;20068;-58
2021/06/04 05:15:26;;;;;;;18.03;8.77;;;;;;;;;;4993944;28;20039;-58
2021/06/04 05:17:53;;;;;;;15.57;8.10;;;;;;;;;;4994005;28;20057;-59
2021/06/04 05:20:21;;;;;;;14.90;8.60;;;;;;;;;;4994498;28;20033;-59
2021/06/04 05:22:48;;;;;;;18.03;8.33;;;;;;;;;;4993738;28;20050;-59
2021/06/04 05:25:16;;;;;;;12.30;8.10;;;;;;;;;;4993920;28;20503;-59
2021/06/04 05:27:45;;;;;;;15.77;8.17;;;;;;;;;;4993755;28;20037;-59
2021/06/04 05:30:15;;;;;;;10.97;7.80;;;;;;;;;;4993553;28;20409;-59
2021/06/04 05:32:42;;;;;;;17.43;8.70;;;;;;;;;;4993560;28;20038;-59
2021/06/04 05:35:09;;;;;;;15.33;8.80;;;;;;;;;;4993649;28;20455;-59
2021/06/04 05:37:37;;;;;;;14.43;7.83;;;;;;;;;;4994851;28;20509;-59
2021/06/04 05:40:09;;;;;;;14.73;8.40;;;;;;;;;;4993552;28;20058;-59
2021/06/04 05:42:36;;;;;;;14.90;8.07;;;;;;;;;;4976324;28;20486;-59
2021/06/04 05:45:03;;;;;;;13.33;8.17;;;;;;;;;;4993596;28;20073;-59
2021/06/04 05:47:30;;;;;;;20.43;9.10;;;;;;;;;;4993416;28;20073;-59
2021/06/04 05:49:56;;;;;;;15.67;8.90;;;;;;;;;;4993443;28;20050;-59
2021/06/04 05:52:24;;;;;;;14.90;10.10;;;;;;;;;;4993615;28;20022;-59
2021/06/04 05:54:51;;;;;;;14.20;10.23;;;;;;;;;;4993377;28;20026;-59
2021/06/04 05:57:18;;;;;;;15.70;8.80;;;;;;;;;;4993404;28;20070;-59
2021/06/04 05:59:45;;;;;;;15.50;10.00;;;;;;;;;;4993279;28;20030;-59
2021/06/04 06:02:12;;;;;;;16.90;9.50;;;;;;;;;;4993267;28;20034;-59
2021/06/04 06:04:40;;;;;;;15.57;10.53;;;;;;;;;;4993293;28;20037;-59
2021/06/04 06:07:07;;;;;;;13.13;8.87;;;;;;;;;;4994243;28;20120;-59
2021/06/04 06:09:33;;;;;;;21.20;14.57;;;;;;;;;;4997381;28;20054;-59
2021/06/04 06:12:00;;;;;;;29.77;14.03;;;;;;;;;;4997170;28;20030;-59
2021/06/04 06:14:34;;;;;;;23.40;15.73;;;;;;;;;;4997235;28;20516;-59
2021/06/04 06:17:07;;;;;;;17.93;12.97;;;;;;;;;;4996970;28;20105;-59
2021/06/04 06:19:33;;;;;;;13.93;10.33;;;;;;;;;;4997112;28;20027;-59
2021/06/04 06:22:00;;;;;;;13.87;10.13;;;;;;;;;;4997089;28;20022;-59
2021/06/04 06:24:27;;;;;;;12.47;9.77;;;;;;;;;;4996763;28;20523;-59
2021/06/04 06:26:54;;;;;;;16.43;10.43;;;;;;;;;;4997126;28;20049;-59
2021/06/04 06:29:21;;;;;;;15.63;10.60;;;;;;;;;;4979695;28;20038;-58
2021/06/04 06:31:48;;;;;;;11.13;8.57;;;;;;;;;;4996863;28;20096;-58
2021/06/04 06:34:15;;;;;;;12.37;8.80;;;;;;;;;;4996909;28;20037;-58
2021/06/04 06:36:43;;;;;;;12.60;9.07;;;;;;;;;;4998594;28;20071;-58
2021/06/04 06:39:14;;;;;;;12.60;9.17;;;;;;;;;;4996950;28;20389;-58
2021/06/04 06:41:43;;;;;;;12.03;9.17;;;;;;;;;;4996961;28;20109;-58
2021/06/04 06:44:10;;;;;;;12.87;8.87;;;;;;;;;;4996927;28;20026;-58
2021/06/04 06:46:38;;;;;;;13.30;8.77;;;;;;;;;;4996700;28;20027;-58
2021/06/04 06:49:05;;;;;;;11.43;8.87;;;;;;;;;;4996391;28;20212;-58
2021/06/04 06:51:37;;;;;;;11.50;9.13;;;;;;;;;;4996677;28;20028;-58
2021/06/04 06:54:06;;;;;;;10.80;8.83;;;;;;;;;;4996631;28;20049;-58
2021/06/04 06:56:34;;;;;;;9.50;7.60;;;;;;;;;;4996476;28;20122;-58
2021/06/04 06:59:01;;;;;;;11.13;8.07;;;;;;;;;;4996477;28;20033;-58
2021/06/04 07:01:28;;;;;;;11.97;9.13;;;;;;;;;;4996578;28;20037;-58
2021/06/04 07:03:55;;;;;;;17.53;10.40;;;;;;;;;;4996266;28;20430;-59
2021/06/04 07:06:27;;;;;;;20.33;12.00;;;;;;;;;;4996228;28;20033;-58
2021/06/04 07:08:54;;;;;;;21.67;11.23;;;;;;;;;;4988510;28;20042;-59
2021/06/04 07:11:22;;;;;;;19.60;10.17;;;;;;;;;;4996190;28;20532;-59
2021/06/04 07:13:50;;;;;;;16.23;10.07;;;;;;;;;;4996058;28;20389;-59
2021/06/04 07:16:17;;;;;;;18.27;9.57;;;;;;;;;;4996143;28;20390;-59
2021/06/04 07:18:43;;;;;;;15.43;8.07;;;;;;;;;;4995966;28;20065;-60
2021/06/04 07:21:11;;;;;;;13.00;7.67;;;;;;;;;;4996249;28;20462;-59
2021/06/04 07:23:38;;;;;;;13.67;7.33;;;;;;;;;;4995986;28;20034;-59
2021/06/04 07:26:05;;;;;;;23.60;8.27;;;;;;;;;;4996060;28;20114;-59
2021/06/04 07:28:33;;;;;;;12.83;7.27;;;;;;;;;;4995938;28;20030;-59
2021/06/04 07:31:01;;;;;;;12.00;7.40;;;;;;;;;;4996064;28;20401;-59
2021/06/04 07:33:40;;;;;;;12.67;8.10;;;;;;;;;;4996109;28;20034;-59
2021/06/04 07:36:08;;;;;;;11.97;6.83;;;;;;;;;;4993059;28;20406;-59
2021/06/04 07:38:35;;;;;;;12.73;7.70;;;;;;;;;;4976535;28;20205;-59
2021/06/04 07:41:02;;;;;;;10.53;7.40;;;;;;;;;;4976330;28;20039;-59
2021/06/04 07:43:31;;;;;;;10.77;6.60;;;;;;;;;;4976448;28;20382;-59
2021/06/04 07:45:58;;;;;;;13.27;6.37;;;;;;;;;;4976333;28;20026;-59
2021/06/04 07:48:25;;;;;;;10.27;5.30;;;;;;;;;;4976092;28;20094;-59
2021/06/04 07:50:54;;;;;;;10.27;6.17;;;;;;;;;;4976127;28;20034;-59
2021/06/04 07:53:23;;;;;;;10.17;6.40;;;;;;;;;;4976324;28;20031;-59
2021/06/04 07:55:50;;;;;;;10.50;6.67;;;;;;;;;;4975959;28;20074;-58
2021/06/04 07:58:17;;;;;;;8.73;6.10;;;;;;;;;;4958719;28;20118;-59
2021/06/04 08:00:44;;;;;;;10.10;6.33;;;;;;;;;;4975948;28;20043;-59
2021/06/04 08:03:11;;;;;;;13.87;6.60;;;;;;;;;;4975841;28;20105;-59
2021/06/04 08:05:38;;;;;;;9.60;6.80;;;;;;;;;;4975868;28;20075;-59
2021/06/04 08:08:09;;;;;;;8.93;6.87;;;;;;;;;;4975642;28;20094;-59
2021/06/04 08:10:37;;;;;;;8.60;6.43;;;;;;;;;;4975635;28;20035;-59
2021/06/04 08:13:06;;;;;;;9.90;7.20;;;;;;;;;;4975942;28;20038;-59
2021/06/04 08:15:35;;;;;;;12.17;7.37;;;;;;;;;;4975613;28;20054;-59
2021/06/04 08:18:02;;;;;;;10.80;7.10;;;;;;;;;;4975660;28;20422;-58
2021/06/04 08:20:30;;;;;;;11.17;6.90;;;;;;;;;;4975556;28;20030;-59
2021/06/04 08:22:59;;;;;;;10.27;7.03;;;;;;;;;;4975594;28;20541;-59
2021/06/04 08:25:32;;;;;;;11.60;7.60;;;;;;;;;;4975384;28;20062;-59
2021/06/04 08:28:00;;;;;;;11.43;6.63;;;;;;;;;;4975446;28;20070;-59
2021/06/04 08:30:27;;;;;;;9.80;6.13;;;;;;;;;;4974864;28;20378;-59
2021/06/04 08:32:54;;;;;;;9.13;5.80;;;;;;;;;;4975370;28;20023;-59
2021/06/04 08:35:22;;;;;;;9.50;5.53;;;;;;;;;;4975147;28;20105;-59
2021/06/04 08:37:48;;;;;;;6.27;4.70;;;;;;;;;;4995301;28;20568;-59
2021/06/04 08:40:17;;;;;;;7.60;5.23;;;;;;;;;;4994515;28;20026;-59
2021/06/04 08:43:07;;;;;;;10.97;4.43;;;;;;;;;;4994639;28;20496;-59
2021/06/04 08:45:36;;;;;;;7.53;4.23;;;;;;;;;;4994354;28;20030;-59
2021/06/04 08:48:09;;;;;;;5.40;4.10;;;;;;;;;;4994446;28;20034;-59
2021/06/04 08:50:56;;;;;;;6.30;3.70;;;;;;;;;;4994566;28;20019;-58
2021/06/04 08:53:46;;;;;;;5.07;3.30;;;;;;;;;;4994334;28;20031;-57
2021/06/04 08:56:17;;;;;;;5.13;2.93;;;;;;;;;;4982104;28;20486;-57
2021/06/04 08:58:47;;;;;;;5.83;3.23;;;;;;;;;;4994273;28;20026;-57
2021/06/04 09:01:20;;;;;;;4.27;2.67;;;;;;;;;;4994266;28;20038;-57
2021/06/04 09:04:07;;;;;;;5.80;2.63;;;;;;;;;;4994058;28;20413;-59
2021/06/04 09:06:37;;;;;;;4.90;3.20;;;;;;;;;;4977747;28;20030;-59
2021/06/04 09:09:07;;;;;;;7.30;4.23;;;;;;;;;;4994649;28;20039;-58
2021/06/04 09:11:37;;;;;;;10.13;5.53;;;;;;;;;;4993964;28;20026;-58
2021/06/04 09:14:04;;;;;;;8.03;5.10;;;;;;;;;;4994061;28;20218;-58
2021/06/04 09:16:35;;;;;;;8.57;6.40;;;;;;;;;;4993863;28;20082;-58
2021/06/04 09:19:17;;;;;;;9.13;6.37;;;;;;;;;;4993782;28;20386;-58
2021/06/04 09:21:45;;;;;;;9.47;6.10;;;;;;;;;;4993992;28;20030;-58
2021/06/04 09:24:19;;;;;;;10.00;6.50;;;;;;;;;;4993822;28;20078;-58
2021/06/04 09:26:46;;;;;;;8.23;6.67;;;;;;;;;;4994419;28;20457;-58
2021/06/04 09:29:17;;;;;;;10.40;6.63;;;;;;;;;;4993628;28;20481;-58
2021/06/04 09:31:47;;;;;;;9.60;7.13;;;;;;;;;;4993721;28;20119;-58
2021/06/04 09:34:26;;;;;;;7.97;6.13;;;;;;;;;;4993934;28;20026;-58
2021/06/04 09:37:05;;;;;;;10.93;7.17;;;;;;;;;;4994712;28;20488;-58
2021/06/04 09:39:32;;;;;;;10.23;8.03;;;;;;;;;;4993401;28;20157;-58
2021/06/04 09:42:19;;;;;;;8.50;5.27;;;;;;;;;;4992798;28;20103;-58
2021/06/04 09:45:09;;;;;;;7.20;5.23;;;;;;;;;;4977473;28;20038;-58
2021/06/04 09:47:41;;;;;;;8.40;5.27;;;;;;;;;;4981144;28;20046;-58
2021/06/04 09:50:14;;;;;;;10.77;5.63;;;;;;;;;;4993313;28;20014;-58
2021/06/04 09:52:41;;;;;;;6.73;4.60;;;;;;;;;;4993453;28;20033;-58
2021/06/04 09:55:21;;;;;;;6.07;4.60;;;;;;;;;;4993479;28;20046;-58
2021/06/04 09:58:00;;;;;;;6.80;4.40;;;;;;;;;;4993806;28;20035;-58
2021/06/04 10:00:33;;;;;;;7.30;3.67;;;;;;;;;;4993474;28;20109;-58
2021/06/04 10:03:18;;;;;;;6.80;4.37;;;;;;;;;;4993310;28;20385;-58
2021/06/04 10:05:45;;;;;;;5.55;3.75;;;;;;;;;;4993475;28;20489;-58
2021/06/04 10:08:24;;;;;;;4.67;3.23;;;;;;;;;;4993185;28;20508;-58
2021/06/04 10:11:11;;;;;;;5.73;3.67;;;;;;;;;;4993441;28;20037;-58
2021/06/04 10:14:00;;;;;;;6.37;4.13;;;;;;;;;;4993186;28;20041;-58
2021/06/04 10:16:47;;;;;;;5.20;2.93;;;;;;;;;;4993276;28;20030;-58
2021/06/04 10:19:32;;;;;;;5.20;3.03;;;;;;;;;;4993265;28;20492;-58
2021/06/04 10:21:58;;;;;;;;;;;;;;;;;;4993691;28;20022;-58
2021/06/04 10:24:30;;;;;;;4.70;2.63;;;;;;;;;;4993032;28;19914;-57
2021/06/04 10:27:02;;;;;;;4.80;3.10;;;;;;;;;;4975749;28;20548;-58
2021/06/04 10:29:30;;;;;;;5.50;3.07;;;;;;;;;;4993070;28;20049;-58
2021/06/04 10:31:59;;;;;;;5.07;2.53;;;;;;;;;;4975687;28;20058;-58
2021/06/04 10:34:44;;;;;;;4.97;2.00;;;;;;;;;;4993039;28;20406;-58
2021/06/04 10:37:31;;;;;;;4.30;1.88;;;;;;;;;;4994769;28;20133;-58
2021/06/04 10:40:04;;;;;;;6.30;1.60;;;;;;;;;;4944159;28;20034;-58
2021/06/04 10:42:37;;;;;;;2.60;1.57;;;;;;;;;;4993107;28;20385;-58
2021/06/04 10:45:20;;;;;;;6.07;1.20;;;;;;;;;;4993087;28;20023;-58
2021/06/04 10:47:56;;;;;;;2.73;1.10;;;;;;;;;;4993009;28;20049;-58
2021/06/04 10:50:28;;;;;;;5.03;1.87;;;;;;;;;;4992940;28;20109;-58
2021/06/04 10:53:06;;;;;;;2.93;1.20;;;;;;;;;;4993656;28;20418;-58
2021/06/04 10:55:37;;;;;;;6.77;1.20;;;;;;;;;;4996422;28;20037;-58
2021/06/04 10:58:20;;;;;;;4.67;0.93;;;;;;;;;;4996538;28;20170;-58
2021/06/04 11:00:49;;;;;;;3.27;0.90;;;;;;;;;;4996615;28;20029;-58
2021/06/04 11:03:22;;;;;;;1.80;0.93;;;;;;;;;;4996393;28;20034;-58
2021/06/04 11:05:52;;;;;;;4.80;1.63;;;;;;;;;;4996401;28;20030;-58
2021/06/04 11:08:33;;;;;;;4.63;1.63;;;;;;;;;;4996313;28;20034;-58
2021/06/04 11:11:06;;;;;;;2.50;1.33;;;;;;;;;;4996425;28;20054;-58
2021/06/04 11:13:36;;;;;;;4.23;1.30;;;;;;;;;;4996322;28;20030;-58
2021/06/04 11:16:13;;;;;;;3.77;1.47;;;;;;;;;;4996237;28;20429;-58
2021/06/04 11:18:43;;;;;;;2.47;1.10;;;;;;;;;;4995996;28;20033;-58
2021/06/04 11:21:30;;;;;;;4.40;1.90;;;;;;;;;;4996213;28;20493;-58
2021/06/04 11:24:15;;;;;;;3.07;1.30;;;;;;;;;;4995983;28;20026;-58
2021/06/04 11:26:48;;;;;;;1.80;1.10;;;;;;;;;;4995979;28;20022;-58
2021/06/04 11:29:17;;;;;;;2.40;1.17;;;;;;;;;;4996041;28;20038;-58
2021/06/04 11:31:54;;;;;;;3.20;1.40;;;;;;;;;;4996118;28;20030;-58
2021/06/04 11:34:21;;;;;;;2.37;1.30;;;;;;;;;;4995910;28;20396;-58
2021/06/04 11:36:48;;;;;;;2.30;0.93;;;;;;;;;;4990696;28;20418;-58
2021/06/04 11:39:22;;;;;;;3.67;1.90;;;;;;;;;;4976508;28;20023;-58
2021/06/04 11:41:54;;;;;;;4.40;1.70;;;;;;;;;;4976472;28;20019;-58
2021/06/04 11:44:27;;;;;;;3.37;1.47;;;;;;;;;;4976280;28;20034;-58
2021/06/04 11:47:12;;;;;;;2.57;1.50;;;;;;;;;;4976321;28;20106;-58
2021/06/04 11:49:39;;;;;;;;;;;;;;;;;;4976512;28;20035;-58
2021/06/04 11:52:18;;;;;;;2.70;1.07;;;;;;;;;;4976105;28;19972;-58
2021/06/04 11:54:45;;;;;;;4.73;2.00;;;;;;;;;;4976065;28;20033;-58
2021/06/04 11:57:14;;;;;;;3.07;1.43;;;;;;;;;;4976467;28;20051;-58
2021/06/04 11:59:49;;;;;;;5.43;2.00;;;;;;;;;;4975991;28;20057;-58
2021/06/04 12:02:46;;;;;;;4.03;1.77;;;;;;;;;;4975934;28;20050;-58
2021/06/04 12:05:12;;;;;;;2.77;1.20;;;;;;;;;;4954917;28;20039;-58
2021/06/04 12:07:43;;;;;;;2.73;1.00;;;;;;;;;;4958419;28;20041;-58
2021/06/04 12:10:12;;;;;;;3.10;1.20;;;;;;;;;;4976030;28;20027;-58
2021/06/04 12:12:51;;;;;;;3.50;1.10;;;;;;;;;;4975685;28;20031;-58
2021/06/04 12:15:18;;;;;;;2.27;1.10;;;;;;;;;;4975898;28;20390;-58
2021/06/04 12:17:45;;;;;;;5.43;1.40;;;;;;;;;;4975798;28;20031;-58
2021/06/04 12:20:30;;;;;;;3.60;1.47;;;;;;;;;;4975520;28;20034;-58
2021/06/04 12:22:59;;;;;;;1.95;1.10;;;;;;;;;;4958414;28;20481;-57
2021/06/04 12:25:38;;;;;;;3.73;1.20;;;;;;;;;;4975607;28;20030;-57
2021/06/04 12:28:07;;;;;;;3.57;1.50;;;;;;;;;;4975413;28;20034;-58
2021/06/04 12:30:45;;;;;;;1.80;0.97;;;;;;;;;;4975307;28;20113;-58
2021/06/04 12:33:30;;;;;;;3.87;1.20;;;;;;;;;;4975474;28;20034;-58
2021/06/04 12:35:57;;;;;;;2.88;1.40;;;;;;;;;;4975304;28;20035;-58
2021/06/04 12:38:32;;;;;;;5.00;1.53;;;;;;;;;;4996389;28;20116;-58
2021/06/04 12:41:02;;;;;;;2.50;1.40;;;;;;;;;;4994654;28;20018;-58
2021/06/04 12:43:31;;;;;;;2.47;1.13;;;;;;;;;;4994618;28;20022;-58
2021/06/04 12:46:22;;;;;;;3.90;1.30;;;;;;;;;;4994522;28;20019;-58
2021/06/04 12:49:06;;;;;;;3.73;1.43;;;;;;;;;;4994478;28;20043;-58
2021/06/04 12:51:42;;;;;;;2.63;1.93;;;;;;;;;;4994569;28;20019;-58
2021/06/04 12:54:34;;;;;;;2.13;1.40;;;;;;;;;;4994489;28;20026;-58
2021/06/04 12:57:06;;;;;;;2.97;1.53;;;;;;;;;;4994246;28;20110;-58
2021/06/04 12:59:38;;;;;;;5.37;2.20;;;;;;;;;;4992602;28;20139;-58
2021/06/04 13:02:19;;;;;;;6.03;2.30;;;;;;;;;;4993414;28;20041;-58
2021/06/04 13:04:53;;;;;;;2.27;1.50;;;;;;;;;;4994063;28;20038;-58
2021/06/04 13:07:28;;;;;;;3.20;1.63;;;;;;;;;;4993331;28;20066;-58
2021/06/04 13:10:04;;;;;;;3.57;2.00;;;;;;;;;;4994388;28;20026;-58
2021/06/04 13:12:42;;;;;;;4.57;2.23;;;;;;;;;;4976617;28;20029;-58
2021/06/04 13:15:11;;;;;;;4.83;2.50;;;;;;;;;;4993119;28;20474;-58
2021/06/04 13:17:38;;;;;;;6.47;2.43;;;;;;;;;;4993848;28;20033;-58
2021/06/04 13:20:15;;;;;;;4.50;2.00;;;;;;;;;;4993900;28;20022;-58
2021/06/04 13:22:43;;;;;;;3.77;1.70;;;;;;;;;;4993981;28;20050;-58
2021/06/04 13:25:29;;;;;;;5.53;2.40;;;;;;;;;;4993914;28;20019;-57
2021/06/04 13:28:00;;;;;;;;;;;;;;;;;;4994196;28;20044;-58
2021/06/04 13:30:29;;;;;;;3.93;2.10;;;;;;;;;;4993753;28;19913;-57
2021/06/04 13:32:58;;;;;;;4.40;2.27;;;;;;;;;;4993675;28;20030;-58
2021/06/04 13:35:24;;;;;;;4.30;2.40;;;;;;;;;;4993542;28;20429;-58
2021/06/04 13:37:54;;;;;;;4.07;1.63;;;;;;;;;;4982460;28;20054;-57
2021/06/04 13:40:22;;;;;;;3.50;1.70;;;;;;;;;;4974177;28;20031;-58
2021/06/04 13:42:53;;;;;;;5.73;2.10;;;;;;;;;;4974149;28;20031;-58
2021/06/04 13:45:22;;;;;;;7.13;2.13;;;;;;;;;;4974446;28;20027;-58
2021/06/04 13:47:51;;;;;;;3.93;2.10;;;;;;;;;;4974023;28;20421;-58
2021/06/04 13:50:23;;;;;;;5.67;2.30;;;;;;;;;;4974024;28;20098;-58
2021/06/04 13:53:04;;;;;;;3.10;2.20;;;;;;;;;;4973886;28;20034;-58
2021/06/04 13:55:38;;;;;;;5.73;2.13;;;;;;;;;;4974003;28;20039;-58
2021/06/04 13:58:20;;;;;;;5.13;2.13;;;;;;;;;;4974079;28;20035;-58
2021/06/04 14:01:05;;;;;;;4.60;2.17;;;;;;;;;;4973899;28;20035;-58
2021/06/04 14:03:33;;;;;;;3.20;2.08;;;;;;;;;;4973990;28;20031;-58
2021/06/04 14:06:01;;;;;;;3.67;2.50;;;;;;;;;;4973991;28;20042;-58
2021/06/04 14:08:28;;;;;;;4.63;2.70;;;;;;;;;;4973900;28;20512;-57
2021/06/04 14:10:56;;;;;;;6.33;2.23;;;;;;;;;;4973953;28;20127;-58
2021/06/04 14:13:25;;;;;;;5.07;2.80;;;;;;;;;;4973953;28;20023;-57
2021/06/04 14:16:02;;;;;;;3.77;2.27;;;;;;;;;;4973858;28;20427;-57
2021/06/04 14:18:42;;;;;;;4.40;3.03;;;;;;;;;;4973761;28;20035;-57
2021/06/04 14:21:27;;;;;;;4.87;2.70;;;;;;;;;;4973792;28;20027;-57
2021/06/04 14:23:59;;;;;;;4.80;2.90;;;;;;;;;;4973727;28;20030;-57
2021/06/04 14:26:30;;;;;;;3.90;2.80;;;;;;;;;;4973695;28;20035;-58
2021/06/04 14:29:08;;;;;;;5.90;2.70;;;;;;;;;;4976051;28;20049;-58
2021/06/04 14:31:35;;;;;;;6.70;2.90;;;;;;;;;;4977694;28;20023;-58
2021/06/04 14:34:02;;;;;;;6.43;3.43;;;;;;;;;;4977499;28;20156;-58
2021/06/04 14:36:33;;;;;;;5.83;3.33;;;;;;;;;;4980128;28;20054;-58
2021/06/04 14:39:19;;;;;;;5.20;3.43;;;;;;;;;;4977477;28;20066;-58
2021/06/04 14:41:46;;;;;;;7.50;3.63;;;;;;;;;;4977267;28;20027;-58
2021/06/04 14:44:13;;;;;;;6.13;3.57;;;;;;;;;;4977360;28;20030;-58
2021/06/04 14:46:39;;;;;;;7.17;4.40;;;;;;;;;;4977151;28;20042;-58
2021/06/04 14:49:11;;;;;;;8.70;3.73;;;;;;;;;;4977174;28;20039;-58
2021/06/04 14:51:38;;;;;;;6.57;4.00;;;;;;;;;;4977219;28;20023;-58
2021/06/04 14:54:05;;;;;;;5.97;4.00;;;;;;;;;;4977071;28;20031;-58
2021/06/04 14:56:32;;;;;;;7.10;3.53;;;;;;;;;;4977120;28;20031;-58
2021/06/04 14:58:59;;;;;;;6.80;3.83;;;;;;;;;;4977097;28;20049;-58
2021/06/04 15:01:26;;;;;;;10.93;4.43;;;;;;;;;;4977127;28;20434;-58